Terminal Aerodrome Forecast
Issued by NWS

Home | Current Version | Previous Version | Text Only | Print | Product List | Glossary On
Versions: 1 2 3 4 5 6 7 8 9 10 11 12 13 14 15 16 17 18 19 20 21 22 23 24
000
FTUS43 KDVN 201139
TAFCID
TAF
KCID 201139Z 2012/2112 07008KT P6SM VCSH OVC080
     FM201500 07008KT P6SM -RA OVC050
     FM202100 04006KT P6SM VCSH OVC040
     FM210100 01004KT P6SM SCT040 OVC120
     FM210600 27004KT P6SM SKC=

USA.gov is the U.S. government's official web portal to all federal, state and local government web resources and services.